PGUM/GUM METAR and TAF weather

Enter ICAO airport designator
Station Type Date Time Source
PGUM METAR 2022/05/24 11:54 UTC NOAA

PGUM 241154Z 07007KT 10SM CLR 28/25 A2997 RMK AO2 SLP140 T02830250 10317 20283 52017 $


Station Type Date Time Source
PGUM Decoded METAR 2022/05/24 11:54 UTC NOAA

Agana, Guam International Airport, GU, United States (PGUM) 13-29N 144-48E
May 24, 2022 - 07:54 AM EDT / 2022.05.24 1154 UTC
Wind: from the ENE (070 degrees) at 8 MPH (7 KT):0
Visibility: 10 mile(s):0
Sky conditions: clear
Temperature: 82.9 F (28.3 C)
Dew Point: 77.0 F (25.0 C)
Relative Humidity: 82%
Pressure (altimeter): 29.97 in. Hg (1014 hPa)
Pressure tendency: 0.05 inches (1.7 hPa) higher than three hours ago
ob: PGUM 241154Z 07007KT 10SM CLR 28/25 A2997 RMK AO2 SLP140 T02830250 10317 20283 52017
cycle: 12

Station Type Date Time Source
PGUM TAF 2022/05/24 12:30 UTC NOAA

TAF PGUM 241125Z 2412/2518 09011KT P6SM FEW020

Example: see airport list